sensor_id;sensor_type;location;lat;lon;timestamp;pressure;altitude;pressure_sealevel;temperature;humidity
20394;BME280;10356;50.544;9.642;2024-02-23T00:00:06;95745.06;;;7.77;95.94
20394;BME280;10356;50.544;9.642;2024-02-23T00:02:36;95759.00;;;7.76;96.38
20394;BME280;10356;50.544;9.642;2024-02-23T00:05:03;95754.78;;;7.67;96.63
20394;BME280;10356;50.544;9.642;2024-02-23T00:07:30;95774.38;;;7.61;96.80
20394;BME280;10356;50.544;9.642;2024-02-23T00:09:56;95778.41;;;7.63;95.90
20394;BME280;10356;50.544;9.642;2024-02-23T00:12:24;95792.34;;;7.54;95.34
20394;BME280;10356;50.544;9.642;2024-02-23T00:14:51;95777.63;;;7.55;94.49
20394;BME280;10356;50.544;9.642;2024-02-23T00:17:17;95796.41;;;7.57;93.36
20394;BME280;10356;50.544;9.642;2024-02-23T00:19:45;95795.56;;;7.48;93.25
20394;BME280;10356;50.544;9.642;2024-02-23T00:22:11;95805.09;;;7.40;92.89
20394;BME280;10356;50.544;9.642;2024-02-23T00:24:38;95820.34;;;7.35;92.90
20394;BME280;10356;50.544;9.642;2024-02-23T00:27:06;95830.19;;;7.39;91.83
20394;BME280;10356;50.544;9.642;2024-02-23T00:29:33;95841.84;;;7.35;92.37
20394;BME280;10356;50.544;9.642;2024-02-23T00:32:00;95841.50;;;7.30;91.53
20394;BME280;10356;50.544;9.642;2024-02-23T00:34:27;95842.19;;;7.40;89.96
20394;BME280;10356;50.544;9.642;2024-02-23T00:36:56;95832.94;;;7.38;89.36
20394;BME280;10356;50.544;9.642;2024-02-23T00:39:22;95842.34;;;7.39;88.66
20394;BME280;10356;50.544;9.642;2024-02-23T00:41:49;95849.31;;;7.38;88.60
20394;BME280;10356;50.544;9.642;2024-02-23T00:44:15;95852.38;;;7.34;88.34
20394;BME280;10356;50.544;9.642;2024-02-23T00:46:43;95865.00;;;7.29;88.20
20394;BME280;10356;50.544;9.642;2024-02-23T00:49:09;95882.13;;;7.30;87.42
20394;BME280;10356;50.544;9.642;2024-02-23T00:51:36;95893.44;;;7.21;87.51
20394;BME280;10356;50.544;9.642;2024-02-23T00:54:02;95904.28;;;7.24;87.48
20394;BME280;10356;50.544;9.642;2024-02-23T00:56:29;95917.56;;;7.29;86.19
20394;BME280;10356;50.544;9.642;2024-02-23T00:58:55;95922.75;;;7.29;85.11
20394;BME280;10356;50.544;9.642;2024-02-23T01:01:22;95930.47;;;7.21;86.31
20394;BME280;10356;50.544;9.642;2024-02-23T01:03:49;95944.25;;;7.22;85.81
20394;BME280;10356;50.544;9.642;2024-02-23T01:06:16;95952.84;;;7.22;85.60
20394;BME280;10356;50.544;9.642;2024-02-23T01:08:42;95948.97;;;7.26;84.60
20394;BME280;10356;50.544;9.642;2024-02-23T01:11:09;95957.97;;;7.14;84.92
20394;BME280;10356;50.544;9.642;2024-02-23T01:13:35;95945.84;;;7.15;86.22
20394;BME280;10356;50.544;9.642;2024-02-23T01:16:02;95940.50;;;7.16;86.17
20394;BME280;10356;50.544;9.642;2024-02-23T01:18:29;95956.69;;;7.18;84.82
20394;BME280;10356;50.544;9.642;2024-02-23T01:20:57;95970.09;;;7.14;86.24
20394;BME280;10356;50.544;9.642;2024-02-23T01:23:23;95962.50;;;7.12;83.99
20394;BME280;10356;50.544;9.642;2024-02-23T01:25:50;95967.97;;;7.09;84.97
20394;BME280;10356;50.544;9.642;2024-02-23T01:28:16;95975.72;;;7.09;84.33
20394;BME280;10356;50.544;9.642;2024-02-23T01:30:43;95968.56;;;7.03;85.54
20394;BME280;10356;50.544;9.642;2024-02-23T01:33:09;95969.84;;;6.99;85.58
20394;BME280;10356;50.544;9.642;2024-02-23T01:35:36;95982.44;;;6.94;86.12
20394;BME280;10356;50.544;9.642;2024-02-23T01:38:04;95988.56;;;6.93;85.72
20394;BME280;10356;50.544;9.642;2024-02-23T01:40:31;95986.47;;;6.89;87.25
20394;BME280;10356;50.544;9.642;2024-02-23T01:43:01;95986.31;;;6.90;85.94
20394;BME280;10356;50.544;9.642;2024-02-23T01:45:28;95996.28;;;6.85;86.85
20394;BME280;10356;50.544;9.642;2024-02-23T01:47:55;95978.09;;;6.77;86.22
20394;BME280;10356;50.544;9.642;2024-02-23T01:50:21;95994.97;;;6.81;85.63
20394;BME280;10356;50.544;9.642;2024-02-23T01:52:48;95998.47;;;6.72;86.38
20394;BME280;10356;50.544;9.642;2024-02-23T01:55:20;95999.13;;;6.74;86.24
20394;BME280;10356;50.544;9.642;2024-02-23T01:57:47;96007.41;;;6.60;87.01
20394;BME280;10356;50.544;9.642;2024-02-23T02:00:16;95999.50;;;6.61;87.20
20394;BME280;10356;50.544;9.642;2024-02-23T02:02:43;96025.38;;;6.61;86.19
20394;BME280;10356;50.544;9.642;2024-02-23T02:05:09;96017.31;;;6.47;86.98
20394;BME280;10356;50.544;9.642;2024-02-23T02:07:36;96026.94;;;6.37;87.32
20394;BME280;10356;50.544;9.642;2024-02-23T02:10:08;96045.63;;;6.31;90.11
20394;BME280;10356;50.544;9.642;2024-02-23T02:12:36;96042.16;;;5.95;92.47
20394;BME280;10356;50.544;9.642;2024-02-23T02:15:03;96044.59;;;5.69;95.54
20394;BME280;10356;50.544;9.642;2024-02-23T02:17:30;96046.41;;;5.50;98.15
20394;BME280;10356;50.544;9.642;2024-02-23T02:19:58;96049.56;;;5.53;99.00
20394;BME280;10356;50.544;9.642;2024-02-23T02:22:25;96054.03;;;5.51;97.06
20394;BME280;10356;50.544;9.642;2024-02-23T02:24:51;96056.06;;;5.48;98.27
20394;BME280;10356;50.544;9.642;2024-02-23T02:27:18;96061.44;;;5.37;98.41
20394;BME280;10356;50.544;9.642;2024-02-23T02:29:46;96066.59;;;5.37;99.45
20394;BME280;10356;50.544;9.642;2024-02-23T02:32:16;96076.50;;;5.32;98.64
20394;BME280;10356;50.544;9.642;2024-02-23T02:34:42;96092.41;;;5.37;98.18
20394;BME280;10356;50.544;9.642;2024-02-23T02:37:09;96077.06;;;5.26;97.01
20394;BME280;10356;50.544;9.642;2024-02-23T02:39:35;96092.81;;;5.32;96.94
20394;BME280;10356;50.544;9.642;2024-02-23T02:42:02;96082.38;;;5.24;96.10
20394;BME280;10356;50.544;9.642;2024-02-23T02:44:29;96106.72;;;5.12;98.19
20394;BME280;10356;50.544;9.642;2024-02-23T02:46:57;96117.16;;;5.20;98.25
20394;BME280;10356;50.544;9.642;2024-02-23T02:49:23;96113.63;;;5.21;95.13
20394;BME280;10356;50.544;9.642;2024-02-23T02:51:50;96128.56;;;5.27;94.65
20394;BME280;10356;50.544;9.642;2024-02-23T02:54:17;96124.75;;;5.31;94.72
20394;BME280;10356;50.544;9.642;2024-02-23T02:56:43;96118.78;;;5.31;94.91
20394;BME280;10356;50.544;9.642;2024-02-23T02:59:11;96122.84;;;5.24;93.40
20394;BME280;10356;50.544;9.642;2024-02-23T03:01:38;96128.84;;;5.24;92.29
20394;BME280;10356;50.544;9.642;2024-02-23T03:04:08;96132.09;;;5.26;92.44
20394;BME280;10356;50.544;9.642;2024-02-23T03:06:34;96131.16;;;5.27;89.93
20394;BME280;10356;50.544;9.642;2024-02-23T03:09:01;96128.56;;;5.27;88.69
20394;BME280;10356;50.544;9.642;2024-02-23T03:11:28;96137.00;;;5.29;89.41
20394;BME280;10356;50.544;9.642;2024-02-23T03:13:54;96149.09;;;5.19;90.12
20394;BME280;10356;50.544;9.642;2024-02-23T03:16:21;96137.00;;;5.20;90.03
20394;BME280;10356;50.544;9.642;2024-02-23T03:18:48;96151.00;;;5.17;87.49
20394;BME280;10356;50.544;9.642;2024-02-23T03:21:17;96151.94;;;5.16;87.02
20394;BME280;10356;50.544;9.642;2024-02-23T03:23:43;96162.81;;;5.10;88.01
20394;BME280;10356;50.544;9.642;2024-02-23T03:26:10;96167.16;;;5.09;87.51
20394;BME280;10356;50.544;9.642;2024-02-23T03:28:36;96161.16;;;5.09;87.90
20394;BME280;10356;50.544;9.642;2024-02-23T03:31:03;96167.16;;;5.00;88.94
20394;BME280;10356;50.544;9.642;2024-02-23T03:33:29;96171.22;;;4.93;89.38
20394;BME280;10356;50.544;9.642;2024-02-23T03:35:57;96174.47;;;4.95;88.59
20394;BME280;10356;50.544;9.642;2024-02-23T03:38:25;96182.91;;;4.97;87.62
20394;BME280;10356;50.544;9.642;2024-02-23T03:40:52;96185.19;;;4.81;88.99
20394;BME280;10356;50.544;9.642;2024-02-23T03:43:19;96183.44;;;4.81;87.91
20394;BME280;10356;50.544;9.642;2024-02-23T03:45:45;96181.28;;;4.96;87.47
20394;BME280;10356;50.544;9.642;2024-02-23T03:48:12;96186.44;;;4.86;88.09
20394;BME280;10356;50.544;9.642;2024-02-23T03:50:38;96188.88;;;4.88;88.48
20394;BME280;10356;50.544;9.642;2024-02-23T03:53:05;96200.56;;;4.92;88.45
20394;BME280;10356;50.544;9.642;2024-02-23T03:55:32;96205.72;;;4.92;88.39
20394;BME280;10356;50.544;9.642;2024-02-23T03:57:59;96197.16;;;4.82;89.25
20394;BME280;10356;50.544;9.642;2024-02-23T04:00:25;96203.25;;;4.81;89.69
20394;BME280;10356;50.544;9.642;2024-02-23T04:02:52;96186.44;;;4.96;87.83
20394;BME280;10356;50.544;9.642;2024-02-23T04:05:19;96204.06;;;4.81;89.22
20394;BME280;10356;50.544;9.642;2024-02-23T04:07:45;96204.88;;;4.82;88.75
20394;BME280;10356;50.544;9.642;2024-02-23T04:10:12;96203.00;;;4.74;87.50
20394;BME280;10356;50.544;9.642;2024-02-23T04:12:42;96209.47;;;4.69;88.09
20394;BME280;10356;50.544;9.642;2024-02-23T04:15:09;96215.00;;;4.55;89.34
20394;BME280;10356;50.544;9.642;2024-02-23T04:17:36;96210.50;;;4.47;89.09
20394;BME280;10356;50.544;9.642;2024-02-23T04:20:06;96206.41;;;4.45;89.62
20394;BME280;10356;50.544;9.642;2024-02-23T04:22:33;96209.13;;;4.34;89.12
20394;BME280;10356;50.544;9.642;2024-02-23T04:24:59;96220.88;;;4.26;88.95
20394;BME280;10356;50.544;9.642;2024-02-23T04:27:26;96202.44;;;4.21;89.32
20394;BME280;10356;50.544;9.642;2024-02-23T04:29:54;96209.38;;;4.31;87.93
20394;BME280;10356;50.544;9.642;2024-02-23T04:32:20;96216.94;;;4.22;87.79
20394;BME280;10356;50.544;9.642;2024-02-23T04:34:47;96214.25;;;4.24;86.59
20394;BME280;10356;50.544;9.642;2024-02-23T04:37:13;96220.47;;;4.21;86.29
20394;BME280;10356;50.544;9.642;2024-02-23T04:39:39;96232.16;;;4.25;86.11
20394;BME280;10356;50.544;9.642;2024-02-23T04:42:07;96234.56;;;4.17;86.72
20394;BME280;10356;50.544;9.642;2024-02-23T04:44:34;96231.81;;;4.09;88.01
20394;BME280;10356;50.544;9.642;2024-02-23T04:47:02;96234.25;;;4.11;88.86
20394;BME280;10356;50.544;9.642;2024-02-23T04:49:29;96229.81;;;4.22;88.16
20394;BME280;10356;50.544;9.642;2024-02-23T04:51:55;96238.66;;;4.20;88.30
20394;BME280;10356;50.544;9.642;2024-02-23T04:54:22;96232.41;;;4.22;88.10
20394;BME280;10356;50.544;9.642;2024-02-23T04:56:48;96238.06;;;4.16;88.78
20394;BME280;10356;50.544;9.642;2024-02-23T04:59:15;96237.81;;;4.19;88.03
20394;BME280;10356;50.544;9.642;2024-02-23T05:01:42;96238.56;;;4.10;88.82
20394;BME280;10356;50.544;9.642;2024-02-23T05:04:10;96244.03;;;4.17;87.81
20394;BME280;10356;50.544;9.642;2024-02-23T05:06:36;96246.25;;;4.21;87.93
20394;BME280;10356;50.544;9.642;2024-02-23T05:09:03;96258.13;;;4.13;88.58
20394;BME280;10356;50.544;9.642;2024-02-23T05:11:31;96244.69;;;4.09;88.97
20394;BME280;10356;50.544;9.642;2024-02-23T05:13:57;96243.72;;;4.10;88.64
20394;BME280;10356;50.544;9.642;2024-02-23T05:16:24;96245.94;;;4.15;89.13
20394;BME280;10356;50.544;9.642;2024-02-23T05:18:50;96260.56;;;4.14;89.12
20394;BME280;10356;50.544;9.642;2024-02-23T05:21:18;96248.88;;;4.10;89.95
20394;BME280;10356;50.544;9.642;2024-02-23T05:23:45;96250.72;;;4.19;90.44
20394;BME280;10356;50.544;9.642;2024-02-23T05:26:12;96244.56;;;4.11;90.43
20394;BME280;10356;50.544;9.642;2024-02-23T05:28:39;96250.41;;;4.13;89.94
20394;BME280;10356;50.544;9.642;2024-02-23T05:31:05;96249.88;;;4.19;89.08
20394;BME280;10356;50.544;9.642;2024-02-23T05:33:32;96259.63;;;4.15;89.72
20394;BME280;10356;50.544;9.642;2024-02-23T05:35:58;96247.50;;;4.06;90.40
20394;BME280;10356;50.544;9.642;2024-02-23T05:38:26;96251.91;;;4.15;90.62
20394;BME280;10356;50.544;9.642;2024-02-23T05:40:52;96244.59;;;4.20;89.85
20394;BME280;10356;50.544;9.642;2024-02-23T05:43:19;96241.41;;;4.28;89.33
20394;BME280;10356;50.544;9.642;2024-02-23T05:45:45;96238.41;;;4.33;88.96
20394;BME280;10356;50.544;9.642;2024-02-23T05:48:12;96234.44;;;4.28;89.28
20394;BME280;10356;50.544;9.642;2024-02-23T05:50:38;96237.16;;;4.27;88.40
20394;BME280;10356;50.544;9.642;2024-02-23T05:53:05;96244.66;;;4.30;88.26
20394;BME280;10356;50.544;9.642;2024-02-23T05:55:33;96251.25;;;4.23;89.11
20394;BME280;10356;50.544;9.642;2024-02-23T05:57:59;96236.63;;;4.23;88.33
20394;BME280;10356;50.544;9.642;2024-02-23T06:00:25;96245.09;;;4.14;89.29
20394;BME280;10356;50.544;9.642;2024-02-23T06:02:52;96243.22;;;4.16;89.70
20394;BME280;10356;50.544;9.642;2024-02-23T06:05:18;96257.19;;;4.14;90.03
20394;BME280;10356;50.544;9.642;2024-02-23T06:07:45;96270.63;;;4.17;90.22
20394;BME280;10356;50.544;9.642;2024-02-23T06:10:11;96265.47;;;4.17;90.14
20394;BME280;10356;50.544;9.642;2024-02-23T06:12:39;96280.63;;;4.11;90.27
20394;BME280;10356;50.544;9.642;2024-02-23T06:15:06;96289.88;;;4.13;90.61
20394;BME280;10356;50.544;9.642;2024-02-23T06:17:33;96290.94;;;4.11;91.07
20394;BME280;10356;50.544;9.642;2024-02-23T06:20:00;96294.16;;;4.03;91.57
20394;BME280;10356;50.544;9.642;2024-02-23T06:22:26;96299.03;;;4.06;92.20
20394;BME280;10356;50.544;9.642;2024-02-23T06:24:53;96313.06;;;4.13;91.66
20394;BME280;10356;50.544;9.642;2024-02-23T06:27:19;96314.25;;;4.09;91.69
20394;BME280;10356;50.544;9.642;2024-02-23T06:29:48;96313.56;;;4.07;91.17
20394;BME280;10356;50.544;9.642;2024-02-23T06:32:15;96319.16;;;4.12;90.66
20394;BME280;10356;50.544;9.642;2024-02-23T06:34:42;96318.91;;;4.15;89.55
20394;BME280;10356;50.544;9.642;2024-02-23T06:37:08;96314.94;;;4.11;90.04
20394;BME280;10356;50.544;9.642;2024-02-23T06:39:34;96314.91;;;4.02;90.63
20394;BME280;10356;50.544;9.642;2024-02-23T06:42:01;96316.59;;;3.92;91.32
20394;BME280;10356;50.544;9.642;2024-02-23T06:44:29;96325.72;;;3.96;91.00
20394;BME280;10356;50.544;9.642;2024-02-23T06:46:57;96333.66;;;3.93;91.24
20394;BME280;10356;50.544;9.642;2024-02-23T06:49:23;96334.41;;;3.84;91.36
20394;BME280;10356;50.544;9.642;2024-02-23T06:51:50;96351.75;;;3.82;91.84
20394;BME280;10356;50.544;9.642;2024-02-23T06:54:16;96353.31;;;3.73;92.46
20394;BME280;10356;50.544;9.642;2024-02-23T06:56:43;96341.72;;;3.68;93.59
20394;BME280;10356;50.544;9.642;2024-02-23T06:59:10;96348.66;;;3.67;93.04
20394;BME280;10356;50.544;9.642;2024-02-23T07:01:47;96356.81;;;3.72;92.39
20394;BME280;10356;50.544;9.642;2024-02-23T07:04:15;96350.97;;;3.70;92.64
20394;BME280;10356;50.544;9.642;2024-02-23T07:06:41;96362.47;;;3.66;92.96
20394;BME280;10356;50.544;9.642;2024-02-23T07:09:08;96362.34;;;3.68;92.84
20394;BME280;10356;50.544;9.642;2024-02-23T07:11:36;96360.88;;;3.54;93.75
20394;BME280;10356;50.544;9.642;2024-02-23T07:14:03;96376.31;;;3.54;93.33
20394;BME280;10356;50.544;9.642;2024-02-23T07:16:29;96374.69;;;3.53;93.64
20394;BME280;10356;50.544;9.642;2024-02-23T07:18:57;96382.16;;;3.56;93.62
20394;BME280;10356;50.544;9.642;2024-02-23T07:21:25;96382.28;;;3.55;93.48
20394;BME280;10356;50.544;9.642;2024-02-23T07:23:51;96392.72;;;3.53;93.67
20394;BME280;10356;50.544;9.642;2024-02-23T07:26:18;96391.63;;;3.56;93.89
20394;BME280;10356;50.544;9.642;2024-02-23T07:28:47;96377.28;;;3.53;94.23
20394;BME280;10356;50.544;9.642;2024-02-23T07:31:14;96381.94;;;3.48;94.48
20394;BME280;10356;50.544;9.642;2024-02-23T07:33:42;96390.50;;;3.49;94.70
20394;BME280;10356;50.544;9.642;2024-02-23T07:36:13;96395.28;;;3.53;94.92
20394;BME280;10356;50.544;9.642;2024-02-23T07:38:41;96391.53;;;3.57;94.25
20394;BME280;10356;50.544;9.642;2024-02-23T07:41:09;96391.25;;;3.71;93.21
20394;BME280;10356;50.544;9.642;2024-02-23T07:43:35;96388.97;;;3.78;92.51
20394;BME280;10356;50.544;9.642;2024-02-23T07:46:02;96396.75;;;3.98;92.17
20394;BME280;10356;50.544;9.642;2024-02-23T07:48:30;96387.59;;;4.05;91.48
20394;BME280;10356;50.544;9.642;2024-02-23T07:50:56;96384.75;;;4.08;90.80
20394;BME280;10356;50.544;9.642;2024-02-23T07:53:23;96393.38;;;4.18;90.45
20394;BME280;10356;50.544;9.642;2024-02-23T07:55:51;96390.56;;;4.21;90.40
20394;BME280;10356;50.544;9.642;2024-02-23T07:58:17;96393.00;;;4.23;90.17
20394;BME280;10356;50.544;9.642;2024-02-23T08:00:44;96403.88;;;4.26;90.20
20394;BME280;10356;50.544;9.642;2024-02-23T08:03:12;96398.72;;;4.26;90.32
20394;BME280;10356;50.544;9.642;2024-02-23T08:05:38;96398.41;;;4.41;87.89
20394;BME280;10356;50.544;9.642;2024-02-23T08:08:05;96404.31;;;4.52;88.07
20394;BME280;10356;50.544;9.642;2024-02-23T08:10:32;96406.56;;;4.66;87.55
20394;BME280;10356;50.544;9.642;2024-02-23T08:13:00;96402.91;;;4.69;87.55
20394;BME280;10356;50.544;9.642;2024-02-23T08:15:27;96413.22;;;4.69;87.90
20394;BME280;10356;50.544;9.642;2024-02-23T08:17:53;96406.63;;;4.76;86.39
20394;BME280;10356;50.544;9.642;2024-02-23T08:20:21;96408.00;;;4.80;85.21
20394;BME280;10356;50.544;9.642;2024-02-23T08:22:47;96410.97;;;4.85;85.45
20394;BME280;10356;50.544;9.642;2024-02-23T08:25:14;96417.88;;;5.05;86.38
20394;BME280;10356;50.544;9.642;2024-02-23T08:27:41;96406.53;;;5.17;85.89
20394;BME280;10356;50.544;9.642;2024-02-23T08:30:10;96411.47;;;5.39;83.70
20394;BME280;10356;50.544;9.642;2024-02-23T08:32:37;96408.25;;;5.66;80.35
20394;BME280;10356;50.544;9.642;2024-02-23T08:35:04;96414.78;;;5.70;78.76
20394;BME280;10356;50.544;9.642;2024-02-23T08:37:30;96411.13;;;5.72;79.13
20394;BME280;10356;50.544;9.642;2024-02-23T08:39:57;96411.28;;;5.71;80.40
20394;BME280;10356;50.544;9.642;2024-02-23T08:42:23;96417.25;;;5.71;81.02
20394;BME280;10356;50.544;9.642;2024-02-23T08:44:50;96404.75;;;5.76;81.17
20394;BME280;10356;50.544;9.642;2024-02-23T08:47:18;96410.75;;;5.86;79.22
20394;BME280;10356;50.544;9.642;2024-02-23T08:49:44;96415.66;;;6.09;78.32
20394;BME280;10356;50.544;9.642;2024-02-23T08:52:11;96410.50;;;6.09;80.09
20394;BME280;10356;50.544;9.642;2024-02-23T08:54:38;96411.84;;;6.22;78.85
20394;BME280;10356;50.544;9.642;2024-02-23T08:57:05;96413.91;;;6.38;77.10
20394;BME280;10356;50.544;9.642;2024-02-23T08:59:31;96406.25;;;6.55;76.89
20394;BME280;10356;50.544;9.642;2024-02-23T09:01:58;96409.34;;;6.59;74.13
20394;BME280;10356;50.544;9.642;2024-02-23T09:04:25;96404.41;;;6.75;71.43
20394;BME280;10356;50.544;9.642;2024-02-23T09:06:52;96400.03;;;6.85;71.64
20394;BME280;10356;50.544;9.642;2024-02-23T09:09:19;96386.41;;;6.93;72.72
20394;BME280;10356;50.544;9.642;2024-02-23T09:11:45;96393.72;;;6.97;72.37
20394;BME280;10356;50.544;9.642;2024-02-23T09:14:12;96393.25;;;7.11;74.25
20394;BME280;10356;50.544;9.642;2024-02-23T09:16:38;96401.84;;;7.12;72.39
20394;BME280;10356;50.544;9.642;2024-02-23T09:19:05;96411.41;;;7.02;70.85
20394;BME280;10356;50.544;9.642;2024-02-23T09:21:33;96403.13;;;6.98;70.74
20394;BME280;10356;50.544;9.642;2024-02-23T09:23:59;96410.59;;;7.01;71.75
20394;BME280;10356;50.544;9.642;2024-02-23T09:26:25;96410.22;;;6.96;71.92
20394;BME280;10356;50.544;9.642;2024-02-23T09:28:52;96404.91;;;6.98;70.28
20394;BME280;10356;50.544;9.642;2024-02-23T09:31:18;96417.47;;;6.93;68.22
20394;BME280;10356;50.544;9.642;2024-02-23T09:33:45;96422.09;;;6.89;70.41
20394;BME280;10356;50.544;9.642;2024-02-23T09:36:14;96415.41;;;6.96;70.68
20394;BME280;10356;50.544;9.642;2024-02-23T09:38:41;96424.09;;;6.95;69.42
20394;BME280;10356;50.544;9.642;2024-02-23T09:41:15;96411.47;;;6.92;69.25
20394;BME280;10356;50.544;9.642;2024-02-23T09:43:44;96423.38;;;6.66;69.90
20394;BME280;10356;50.544;9.642;2024-02-23T09:46:13;96416.84;;;6.62;68.36
20394;BME280;10356;50.544;9.642;2024-02-23T09:48:40;96404.47;;;6.56;65.73
20394;BME280;10356;50.544;9.642;2024-02-23T09:51:07;96413.72;;;6.58;67.64
20394;BME280;10356;50.544;9.642;2024-02-23T09:53:37;96416.41;;;6.76;70.36
20394;BME280;10356;50.544;9.642;2024-02-23T09:56:06;96409.69;;;6.83;67.66
20394;BME280;10356;50.544;9.642;2024-02-23T09:58:32;96418.03;;;6.77;67.55
20394;BME280;10356;50.544;9.642;2024-02-23T10:01:01;96406.31;;;6.73;65.32
20394;BME280;10356;50.544;9.642;2024-02-23T10:03:29;96427.31;;;6.70;67.02
20394;BME280;10356;50.544;9.642;2024-02-23T10:05:56;96429.50;;;6.74;67.23
20394;BME280;10356;50.544;9.642;2024-02-23T10:08:23;96421.28;;;6.89;65.09
20394;BME280;10356;50.544;9.642;2024-02-23T10:10:49;96418.69;;;7.25;66.27
20394;BME280;10356;50.544;9.642;2024-02-23T10:13:19;96419.44;;;7.35;65.79
20394;BME280;10356;50.544;9.642;2024-02-23T10:15:45;96417.53;;;7.37;65.57
20394;BME280;10356;50.544;9.642;2024-02-23T10:18:13;96422.34;;;7.32;65.69
20394;BME280;10356;50.544;9.642;2024-02-23T10:20:40;96429.63;;;7.46;65.04
20394;BME280;10356;50.544;9.642;2024-02-23T10:23:07;96426.84;;;7.30;66.04
20394;BME280;10356;50.544;9.642;2024-02-23T10:25:34;96434.03;;;7.36;64.63
20394;BME280;10356;50.544;9.642;2024-02-23T10:28:00;96431.25;;;7.47;66.01
20394;BME280;10356;50.544;9.642;2024-02-23T10:30:28;96441.38;;;7.68;67.13
20394;BME280;10356;50.544;9.642;2024-02-23T10:32:56;96442.78;;;7.62;63.81
20394;BME280;10356;50.544;9.642;2024-02-23T10:35:24;96444.03;;;7.58;65.82
20394;BME280;10356;50.544;9.642;2024-02-23T10:37:53;96441.00;;;7.63;65.83
20394;BME280;10356;50.544;9.642;2024-02-23T10:40:20;96452.84;;;7.65;67.12
20394;BME280;10356;50.544;9.642;2024-02-23T10:42:47;96439.78;;;7.57;67.11
20394;BME280;10356;50.544;9.642;2024-02-23T10:45:17;96452.47;;;7.60;63.63
20394;BME280;10356;50.544;9.642;2024-02-23T10:47:46;96454.03;;;7.44;66.00
20394;BME280;10356;50.544;9.642;2024-02-23T10:50:14;96456.63;;;7.44;64.75
20394;BME280;10356;50.544;9.642;2024-02-23T10:52:41;96459.16;;;7.26;66.17
20394;BME280;10356;50.544;9.642;2024-02-23T10:55:09;96460.09;;;7.25;69.31
20394;BME280;10356;50.544;9.642;2024-02-23T10:57:36;96463.28;;;7.19;67.29
20394;BME280;10356;50.544;9.642;2024-02-23T11:00:04;96470.88;;;7.30;69.40
20394;BME280;10356;50.544;9.642;2024-02-23T11:02:36;96461.19;;;7.32;68.58
20394;BME280;10356;50.544;9.642;2024-02-23T11:05:07;96461.28;;;7.40;66.32
20394;BME280;10356;50.544;9.642;2024-02-23T11:07:37;96452.44;;;7.33;66.55
20394;BME280;10356;50.544;9.642;2024-02-23T11:10:05;96466.84;;;7.45;67.39
20394;BME280;10356;50.544;9.642;2024-02-23T11:12:31;96460.22;;;7.33;66.90
20394;BME280;10356;50.544;9.642;2024-02-23T11:15:00;96455.72;;;7.35;67.22
20394;BME280;10356;50.544;9.642;2024-02-23T11:17:28;96451.66;;;7.33;67.30
20394;BME280;10356;50.544;9.642;2024-02-23T11:19:57;96447.81;;;7.37;67.33
20394;BME280;10356;50.544;9.642;2024-02-23T11:22:25;96438.34;;;7.45;68.89
20394;BME280;10356;50.544;9.642;2024-02-23T11:24:52;96447.19;;;7.52;66.68
20394;BME280;10356;50.544;9.642;2024-02-23T11:27:19;96450.63;;;7.43;67.94
20394;BME280;10356;50.544;9.642;2024-02-23T11:29:46;96463.56;;;7.53;68.14
20394;BME280;10356;50.544;9.642;2024-02-23T11:32:14;96459.59;;;7.76;69.35
20394;BME280;10356;50.544;9.642;2024-02-23T11:34:41;96466.94;;;7.81;68.20
20394;BME280;10356;50.544;9.642;2024-02-23T11:37:09;96467.19;;;7.87;64.03
20394;BME280;10356;50.544;9.642;2024-02-23T11:39:38;96472.06;;;7.90;64.86
20394;BME280;10356;50.544;9.642;2024-02-23T11:42:06;96462.25;;;7.94;66.75
20394;BME280;10356;50.544;9.642;2024-02-23T11:44:32;96466.84;;;8.00;65.55
20394;BME280;10356;50.544;9.642;2024-02-23T11:46:59;96459.16;;;8.08;65.26
20394;BME280;10356;50.544;9.642;2024-02-23T11:49:27;96448.78;;;8.08;62.76
20394;BME280;10356;50.544;9.642;2024-02-23T11:51:54;96442.25;;;8.04;64.43
20394;BME280;10356;50.544;9.642;2024-02-23T11:54:21;96445.38;;;8.25;64.31
20394;BME280;10356;50.544;9.642;2024-02-23T11:56:49;96443.19;;;8.30;63.67
20394;BME280;10356;50.544;9.642;2024-02-23T11:59:18;96431.44;;;8.43;62.45
20394;BME280;10356;50.544;9.642;2024-02-23T12:01:45;96430.41;;;8.54;64.16
20394;BME280;10356;50.544;9.642;2024-02-23T12:04:12;96429.88;;;8.51;63.06
20394;BME280;10356;50.544;9.642;2024-02-23T12:06:39;96432.19;;;8.36;60.76
20394;BME280;10356;50.544;9.642;2024-02-23T12:09:06;96427.28;;;8.33;60.53
20394;BME280;10356;50.544;9.642;2024-02-23T12:11:33;96424.47;;;8.44;61.86
20394;BME280;10356;50.544;9.642;2024-02-23T12:14:01;96425.50;;;8.51;60.66
20394;BME280;10356;50.544;9.642;2024-02-23T12:16:33;96415.13;;;8.51;61.34
20394;BME280;10356;50.544;9.642;2024-02-23T12:19:00;96416.28;;;8.57;61.20
20394;BME280;10356;50.544;9.642;2024-02-23T12:21:27;96412.28;;;8.62;60.45
20394;BME280;10356;50.544;9.642;2024-02-23T12:23:54;96415.84;;;8.61;61.13
20394;BME280;10356;50.544;9.642;2024-02-23T12:26:21;96409.53;;;8.64;60.22
20394;BME280;10356;50.544;9.642;2024-02-23T12:28:48;96412.53;;;8.77;60.69
20394;BME280;10356;50.544;9.642;2024-02-23T12:31:15;96408.25;;;8.93;62.57
20394;BME280;10356;50.544;9.642;2024-02-23T12:33:42;96419.63;;;8.92;62.39
20394;BME280;10356;50.544;9.642;2024-02-23T12:36:13;96421.59;;;8.98;59.86
20394;BME280;10356;50.544;9.642;2024-02-23T12:38:39;96421.63;;;8.81;59.38
20394;BME280;10356;50.544;9.642;2024-02-23T12:41:06;96421.03;;;8.87;61.04
20394;BME280;10356;50.544;9.642;2024-02-23T12:43:33;96416.38;;;8.90;59.91
20394;BME280;10356;50.544;9.642;2024-02-23T12:45:59;96423.50;;;8.88;61.13
20394;BME280;10356;50.544;9.642;2024-02-23T12:48:29;96412.88;;;9.07;59.71
20394;BME280;10356;50.544;9.642;2024-02-23T12:50:56;96409.88;;;9.20;58.11
20394;BME280;10356;50.544;9.642;2024-02-23T12:53:33;96415.31;;;9.35;58.02
20394;BME280;10356;50.544;9.642;2024-02-23T12:56:02;96406.34;;;9.29;56.76
20394;BME280;10356;50.544;9.642;2024-02-23T12:58:29;96413.53;;;9.35;56.16
20394;BME280;10356;50.544;9.642;2024-02-23T13:00:56;96407.34;;;9.36;57.35
20394;BME280;10356;50.544;9.642;2024-02-23T13:03:23;96405.09;;;9.41;57.73
20394;BME280;10356;50.544;9.642;2024-02-23T13:05:51;96398.44;;;9.47;57.63
20394;BME280;10356;50.544;9.642;2024-02-23T13:08:18;96398.25;;;9.40;58.37